Terminal Aerodrome Forecast
Issued by NWS Mt. Holly, NJ

Home | Current Version | Previous Version | Text Only | Print | Product List | Glossary On
Versions: 1 2 3 4 5 6 7 8 9 10 11 12 13 14 15 16 17 18 19 20 21 22 23 24 25 26 27 28 29 30 31 32 33 34 35 36 37 38 39 40 41 42 43 44
616
FTUS41 KPHI 101600 AAC
TAFACY
TAF AMD
KACY 101600Z 1016/1112 21012G22KT P6SM VCSH BKN012 OVC040
      TEMPO 1016/1019 5SM -SHRA BR SCT012 OVC025
     FM101900 24012G22KT P6SM VCSH OVC015
     FM102200 28010KT P6SM -SHRA OVC025
     FM110200 32012KT P6SM BKN035
     FM110300 32010G18KT P6SM -RA OVC035=

USA.gov is the U.S. government's official web portal to all federal, state and local government web resources and services.